createdAt,value
2018-05-09T00:01:04.476Z,3.33
2018-05-09T00:03:32.125Z,3.70
2018-05-09T00:05:59.784Z,3.90
2018-05-09T00:08:27.426Z,3.30
2018-05-09T00:10:55.104Z,3.57
2018-05-09T00:13:22.783Z,3.13
2018-05-09T00:15:50.439Z,2.83
2018-05-09T00:18:18.074Z,3.20
2018-05-09T00:20:45.656Z,3.12
2018-05-09T00:23:13.337Z,3.05
2018-05-09T00:25:42.618Z,3.17
2018-05-09T00:28:10.312Z,3.20
2018-05-09T00:30:38.684Z,3.67
2018-05-09T00:33:07.101Z,2.87
2018-05-09T00:35:34.764Z,3.50
2018-05-09T00:38:02.439Z,2.42
2018-05-09T00:40:30.064Z,3.53
2018-05-09T00:42:57.711Z,3.92
2018-05-09T00:45:25.317Z,2.95
2018-05-09T00:47:52.954Z,3.43
2018-05-09T00:50:20.597Z,3.37
2018-05-09T00:52:48.202Z,3.55
2018-05-09T00:55:15.856Z,3.00
2018-05-09T00:57:43.499Z,3.37
2018-05-09T01:00:11.118Z,3.60
2018-05-09T01:02:38.713Z,4.85
2018-05-09T01:05:06.330Z,4.10
2018-05-09T01:07:33.933Z,4.00
2018-05-09T01:10:01.525Z,3.35
2018-05-09T01:12:29.125Z,3.67
2018-05-09T01:14:56.770Z,4.55
2018-05-09T01:17:24.432Z,3.50
2018-05-09T01:19:52.019Z,3.85
2018-05-09T01:22:19.649Z,3.72
2018-05-09T01:24:47.947Z,4.68
2018-05-09T01:27:15.565Z,4.65
2018-05-09T01:29:43.165Z,4.90
2018-05-09T01:32:12.370Z,4.07
2018-05-09T01:34:40.064Z,4.45
2018-05-09T01:37:08.419Z,4.95
2018-05-09T01:39:36.082Z,4.70
2018-05-09T01:42:03.679Z,4.32
2018-05-09T01:44:31.300Z,4.07
2018-05-09T01:46:58.905Z,4.30
2018-05-09T01:49:26.515Z,4.50
2018-05-09T01:51:54.125Z,4.22
2018-05-09T01:54:21.751Z,4.43
2018-05-09T01:56:49.378Z,5.00
2018-05-09T01:59:17.076Z,4.03
2018-05-09T02:01:44.718Z,4.30
2018-05-09T02:04:12.316Z,5.10
2018-05-09T02:06:40.984Z,5.40
2018-05-09T02:09:08.649Z,5.20
2018-05-09T02:11:37.139Z,4.82
2018-05-09T02:14:05.538Z,4.78
2018-05-09T02:16:33.148Z,5.18
2018-05-09T02:19:01.137Z,4.72
2018-05-09T02:21:28.775Z,4.22
2018-05-09T02:23:57.311Z,5.45
2018-05-09T02:26:25.713Z,5.03
2018-05-09T02:28:53.359Z,5.12
2018-05-09T02:31:21.054Z,5.10
2018-05-09T02:33:48.715Z,5.72
2018-05-09T02:36:16.308Z,4.70
2018-05-09T02:38:44.041Z,5.10
2018-05-09T02:41:11.719Z,5.03
2018-05-09T02:43:39.383Z,5.05
2018-05-09T02:46:07.826Z,4.50
2018-05-09T02:48:36.145Z,4.65
2018-05-09T02:51:03.759Z,6.47
2018-05-09T02:53:31.342Z,4.82
2018-05-09T02:55:58.948Z,5.25
2018-05-09T02:58:26.604Z,7.00
2018-05-09T03:00:54.961Z,5.80
2018-05-09T03:03:23.339Z,6.70
2018-05-09T03:05:50.964Z,5.53
2018-05-09T03:08:18.641Z,6.00
2018-05-09T03:10:46.244Z,5.47
2018-05-09T03:13:15.409Z,5.82
2018-05-09T03:15:43.039Z,5.85
2018-05-09T03:18:10.660Z,6.15
2018-05-09T03:20:38.331Z,6.03
2018-05-09T03:23:06.693Z,6.93
2018-05-09T03:25:34.293Z,7.00
2018-05-09T03:28:01.992Z,7.12
2018-05-09T03:30:29.554Z,7.20
2018-05-09T03:32:57.203Z,6.55
2018-05-09T03:35:25.762Z,6.68
2018-05-09T03:37:53.403Z,7.28
2018-05-09T03:40:21.024Z,6.20
2018-05-09T03:42:48.645Z,7.15
2018-05-09T03:45:16.252Z,7.43
2018-05-09T03:47:43.822Z,7.25
2018-05-09T03:50:11.458Z,7.65
2018-05-09T03:52:39.035Z,7.18
2018-05-09T03:55:06.696Z,7.12
2018-05-09T03:57:34.319Z,7.78
2018-05-09T04:00:01.947Z,6.65
2018-05-09T04:02:44.174Z,7.82
2018-05-09T04:05:23.544Z,7.10
2018-05-09T04:08:03.243Z,7.22
2018-05-09T04:10:30.968Z,7.43
2018-05-09T04:12:58.596Z,7.85
2018-05-09T04:15:26.406Z,7.35
2018-05-09T04:17:54.047Z,7.32
2018-05-09T04:20:22.424Z,8.35
2018-05-09T04:22:50.254Z,8.00
2018-05-09T04:25:17.882Z,7.57
2018-05-09T04:27:45.567Z,7.35
2018-05-09T04:30:14.843Z,7.70
2018-05-09T04:32:42.496Z,8.73
2018-05-09T04:35:10.817Z,8.50
2018-05-09T04:37:38.399Z,9.80
2018-05-09T04:40:06.613Z,8.20
2018-05-09T04:42:35.170Z,8.15
2018-05-09T04:45:02.791Z,8.18
2018-05-09T04:47:30.505Z,8.68
2018-05-09T04:49:58.111Z,7.72
2018-05-09T04:52:25.753Z,8.80
2018-05-09T04:54:53.567Z,8.25
2018-05-09T04:57:21.299Z,7.20
2018-05-09T04:59:48.933Z,6.82
2018-05-09T05:02:16.627Z,8.32
2018-05-09T05:04:44.850Z,7.17
2018-05-09T05:07:12.482Z,8.50
2018-05-09T05:09:40.167Z,8.43
2018-05-09T05:12:07.767Z,7.13
2018-05-09T05:14:35.507Z,7.20
2018-05-09T05:17:03.990Z,7.80
2018-05-09T05:19:31.628Z,7.17
2018-05-09T05:21:59.334Z,7.80
2018-05-09T05:24:26.962Z,8.43
2018-05-09T05:26:55.695Z,7.00
2018-05-09T05:29:23.408Z,6.90
2018-05-09T05:31:51.015Z,6.10
2018-05-09T05:34:18.991Z,6.53
2018-05-09T05:36:47.953Z,8.33
2018-05-09T05:39:15.661Z,6.00
2018-05-09T05:41:43.247Z,7.20
2018-05-09T05:44:10.941Z,6.73
2018-05-09T05:46:38.658Z,6.77
2018-05-09T05:49:06.246Z,6.70
2018-05-09T05:51:33.876Z,6.03
2018-05-09T05:54:01.539Z,5.97
2018-05-09T05:56:29.231Z,8.47
2018-05-09T05:58:56.876Z,6.43
2018-05-09T06:01:24.504Z,5.83
2018-05-09T06:03:52.110Z,7.13
2018-05-09T06:06:19.766Z,6.93
2018-05-09T06:08:48.082Z,7.50
2018-05-09T06:11:15.722Z,6.77
2018-05-09T06:13:43.314Z,5.47
2018-05-09T06:16:10.947Z,5.63
2018-05-09T06:18:38.555Z,6.13
2018-05-09T06:21:06.923Z,5.53
2018-05-09T06:23:34.538Z,8.07
2018-05-09T06:26:02.670Z,6.63
2018-05-09T06:28:31.132Z,5.30
2018-05-09T06:30:59.531Z,6.37
2018-05-09T06:33:27.082Z,6.50
2018-05-09T06:35:55.638Z,6.40
2018-05-09T06:38:24.007Z,6.37
2018-05-09T06:40:51.603Z,6.83
2018-05-09T06:43:19.958Z,7.80
2018-05-09T06:45:47.543Z,7.90
2018-05-09T06:48:15.190Z,6.37
2018-05-09T06:50:42.759Z,9.40
2018-05-09T06:53:11.259Z,7.23
2018-05-09T06:55:38.868Z,9.70
2018-05-09T06:58:06.561Z,7.43
2018-05-09T07:00:34.995Z,7.77
2018-05-09T07:03:02.660Z,6.10
2018-05-09T07:05:30.266Z,7.67
2018-05-09T07:07:57.864Z,6.37
2018-05-09T07:10:25.490Z,8.43
2018-05-09T07:12:53.854Z,6.43
2018-05-09T07:15:21.441Z,5.60
2018-05-09T07:17:49.106Z,8.87
2018-05-09T07:20:16.823Z,6.10
2018-05-09T07:22:44.530Z,6.20
2018-05-09T07:25:12.909Z,5.93
2018-05-09T07:27:40.551Z,8.63
2018-05-09T07:30:08.168Z,6.83
2018-05-09T07:32:35.774Z,7.23
2018-05-09T07:35:04.166Z,5.80
2018-05-09T07:37:32.519Z,6.17
2018-05-09T07:40:00.095Z,8.73
2018-05-09T07:42:29.167Z,6.00
2018-05-09T07:44:56.776Z,6.10
2018-05-09T07:47:24.421Z,5.50
2018-05-09T07:49:52.788Z,5.70
2018-05-09T07:52:20.367Z,5.43
2018-05-09T07:54:48.733Z,4.93
2018-05-09T07:57:17.101Z,7.47
2018-05-09T07:59:44.740Z,5.80
2018-05-09T08:02:12.317Z,5.77
2018-05-09T08:04:40.074Z,5.70
2018-05-09T08:07:07.719Z,6.60
2018-05-09T08:09:35.327Z,7.00
2018-05-09T08:12:04.326Z,6.20
2018-05-09T08:14:32.676Z,6.33
2018-05-09T08:17:01.081Z,6.80
2018-05-09T08:19:28.688Z,6.70
2018-05-09T08:21:56.275Z,6.20
2018-05-09T08:24:23.890Z,5.90
2018-05-09T08:26:51.526Z,6.00
2018-05-09T08:29:19.111Z,7.30
2018-05-09T08:31:46.698Z,6.20
2018-05-09T08:34:14.481Z,6.60
2018-05-09T08:36:42.106Z,6.40
2018-05-09T08:39:09.768Z,6.47
2018-05-09T08:41:37.334Z,6.13
2018-05-09T08:44:04.955Z,6.60
2018-05-09T08:46:33.329Z,8.37
2018-05-09T08:49:01.688Z,7.40
2018-05-09T08:51:29.887Z,5.27
2018-05-09T08:53:57.539Z,5.37
2018-05-09T08:56:26.004Z,6.17
2018-05-09T08:58:53.626Z,11.40
2018-05-09T09:01:21.289Z,11.23
2018-05-09T09:03:48.888Z,5.90
2018-05-09T09:06:16.501Z,5.30
2018-05-09T09:08:44.062Z,5.53
2018-05-09T09:11:11.674Z,6.30
2018-05-09T09:13:39.356Z,4.77
2018-05-09T09:16:06.977Z,5.30
2018-05-09T09:18:34.569Z,4.40
2018-05-09T09:21:02.954Z,4.50
2018-05-09T09:23:31.316Z,3.83
2018-05-09T09:25:58.896Z,4.30
2018-05-09T09:28:26.527Z,4.43
2018-05-09T09:30:54.144Z,4.10
2018-05-09T09:33:21.729Z,10.77
2018-05-09T09:35:49.375Z,4.90
2018-05-09T09:38:16.965Z,3.63
2018-05-09T09:40:44.603Z,7.57
2018-05-09T09:43:12.195Z,3.97
2018-05-09T09:45:39.825Z,4.37
2018-05-09T09:48:07.384Z,3.30
2018-05-09T09:50:35.038Z,3.10
2018-05-09T09:53:02.633Z,3.50
2018-05-09T09:55:30.239Z,4.10
2018-05-09T09:57:57.785Z,4.17
2018-05-09T10:00:26.191Z,4.63
2018-05-09T10:02:53.800Z,4.10
2018-05-09T10:05:21.422Z,4.00
2018-05-09T10:07:49.026Z,3.43
2018-05-09T10:10:16.613Z,4.10
2018-05-09T10:12:44.265Z,4.50
2018-05-09T10:15:12.637Z,4.23
2018-05-09T10:17:41.033Z,4.37
2018-05-09T10:20:08.718Z,2.90
2018-05-09T10:22:36.293Z,3.63
2018-05-09T10:25:03.908Z,4.17
2018-05-09T10:27:32.313Z,3.30
2018-05-09T10:29:59.922Z,3.63
2018-05-09T10:32:27.540Z,4.20
2018-05-09T10:34:55.163Z,3.50
2018-05-09T10:37:23.561Z,4.27
2018-05-09T10:39:51.926Z,3.90
2018-05-09T10:42:20.306Z,5.57
2018-05-09T10:44:48.662Z,3.53
2018-05-09T10:47:17.088Z,3.50
2018-05-09T10:49:44.679Z,4.43
2018-05-09T10:52:12.267Z,4.20
2018-05-09T10:54:39.953Z,3.87
2018-05-09T10:57:08.334Z,3.70
2018-05-09T10:59:36.706Z,3.60
2018-05-09T11:02:05.090Z,4.30
2018-05-09T11:04:32.730Z,4.60
2018-05-09T11:07:00.329Z,4.10
2018-05-09T11:09:27.937Z,3.80
2018-05-09T11:11:55.539Z,3.70
2018-05-09T11:14:23.903Z,3.77
2018-05-09T11:16:52.293Z,3.20
2018-05-09T11:19:20.649Z,4.30
2018-05-09T11:21:48.263Z,5.10
2018-05-09T11:24:15.850Z,4.00
2018-05-09T11:26:43.463Z,3.50
2018-05-09T11:29:11.065Z,4.53
2018-05-09T11:31:38.660Z,5.80
2018-05-09T11:34:07.039Z,3.60
2018-05-09T11:36:35.417Z,4.23
2018-05-09T11:39:03.107Z,3.53
2018-05-09T11:41:30.740Z,3.53
2018-05-09T11:43:58.346Z,4.10
2018-05-09T11:46:27.953Z,3.50
2018-05-09T11:48:55.576Z,6.70
2018-05-09T11:51:23.935Z,4.30
2018-05-09T11:53:51.509Z,3.73
2018-05-09T11:56:19.899Z,5.30
2018-05-09T11:58:47.455Z,4.20
2018-05-09T12:01:15.082Z,3.93
2018-05-09T12:03:42.705Z,3.73
2018-05-09T12:06:10.289Z,5.07
2018-05-09T12:08:37.872Z,4.00
2018-05-09T12:11:05.485Z,3.93
2018-05-09T12:13:33.132Z,3.43
2018-05-09T12:16:00.740Z,3.67
2018-05-09T12:18:28.331Z,4.20
2018-05-09T12:20:56.705Z,3.87
2018-05-09T12:23:24.278Z,5.50
2018-05-09T12:25:52.694Z,3.50
2018-05-09T12:28:20.257Z,3.67
2018-05-09T12:30:47.824Z,3.43
2018-05-09T12:33:15.431Z,3.30
2018-05-09T12:35:43.056Z,3.37
2018-05-09T12:38:10.688Z,3.80
2018-05-09T12:40:38.263Z,3.43
2018-05-09T12:43:05.858Z,3.90
2018-05-09T12:45:33.435Z,3.00
2018-05-09T12:48:01.039Z,3.73
2018-05-09T12:50:28.666Z,4.83
2018-05-09T12:52:57.059Z,3.80
2018-05-09T12:55:24.655Z,4.20
2018-05-09T12:57:52.312Z,3.40
2018-05-09T13:00:20.035Z,3.97
2018-05-09T13:02:48.191Z,3.50
2018-05-09T13:05:15.867Z,4.07
2018-05-09T13:07:43.577Z,4.33
2018-05-09T13:10:11.976Z,3.17
2018-05-09T13:12:39.609Z,3.13
2018-05-09T13:15:07.229Z,3.50
2018-05-09T13:17:35.631Z,3.33
2018-05-09T13:20:03.264Z,4.37
2018-05-09T13:22:31.720Z,4.30
2018-05-09T13:24:59.329Z,3.70
2018-05-09T13:27:26.931Z,3.60
2018-05-09T13:29:54.652Z,4.00
2018-05-09T13:32:23.314Z,3.60
2018-05-09T13:34:50.926Z,3.37
2018-05-09T13:37:18.563Z,4.40
2018-05-09T13:39:46.914Z,4.70
2018-05-09T13:42:14.499Z,3.77
2018-05-09T13:44:42.126Z,3.60
2018-05-09T13:47:09.749Z,3.03
2018-05-09T13:49:37.329Z,7.17
2018-05-09T13:52:04.950Z,4.60
2018-05-09T13:54:32.599Z,3.37
2018-05-09T13:57:00.175Z,2.97
2018-05-09T13:59:27.796Z,4.10
2018-05-09T14:01:56.200Z,3.50
2018-05-09T14:04:24.599Z,3.70
2018-05-09T14:06:52.224Z,3.77
2018-05-09T14:09:20.602Z,4.37
2018-05-09T14:11:48.888Z,3.30
2018-05-09T14:14:16.516Z,3.63
2018-05-09T14:16:44.299Z,4.40
2018-05-09T14:19:11.896Z,3.47
2018-05-09T14:21:39.512Z,3.43
2018-05-09T14:24:07.130Z,3.03
2018-05-09T14:26:34.785Z,3.10
2018-05-09T14:29:02.370Z,4.10
2018-05-09T14:31:29.951Z,3.97
2018-05-09T14:33:57.584Z,3.93
2018-05-09T14:36:25.178Z,4.57
2018-05-09T14:38:52.823Z,3.97
2018-05-09T14:41:20.413Z,4.37
2018-05-09T14:43:47.992Z,4.53
2018-05-09T14:46:15.588Z,3.80
2018-05-09T14:48:43.180Z,4.47
2018-05-09T14:51:10.836Z,3.83
2018-05-09T14:53:38.439Z,3.53
2018-05-09T14:56:06.102Z,4.27
2018-05-09T14:58:34.423Z,4.70
2018-05-09T15:01:01.985Z,4.07
2018-05-09T15:03:29.697Z,4.50
2018-05-09T15:05:57.515Z,5.10
2018-05-09T15:08:25.885Z,4.93
2018-05-09T15:10:53.498Z,4.40
2018-05-09T15:13:21.109Z,4.70
2018-05-09T15:15:49.282Z,4.20
2018-05-09T15:18:16.941Z,4.20
2018-05-09T15:20:44.540Z,4.77
2018-05-09T15:23:12.927Z,4.23
2018-05-09T15:25:40.539Z,4.27
2018-05-09T15:28:08.141Z,5.43
2018-05-09T15:30:35.785Z,5.03
2018-05-09T15:33:03.650Z,6.20
2018-05-09T15:35:31.517Z,6.03
2018-05-09T15:37:59.097Z,6.67
2018-05-09T15:40:26.708Z,4.93
2018-05-09T15:42:54.289Z,3.70
2018-05-09T15:45:21.936Z,4.97
2018-05-09T15:47:49.587Z,4.07
2018-05-09T15:50:17.293Z,4.17
2018-05-09T15:52:44.931Z,3.70
2018-05-09T15:55:12.531Z,4.60
2018-05-09T15:57:40.939Z,3.87
2018-05-09T16:00:08.513Z,4.00
2018-05-09T16:02:36.110Z,3.40
2018-05-09T16:05:03.674Z,3.97
2018-05-09T16:07:31.264Z,4.67
2018-05-09T16:09:59.689Z,4.20
2018-05-09T16:12:27.369Z,4.33
2018-05-09T16:14:55.647Z,3.93
2018-05-09T16:17:23.269Z,3.57
2018-05-09T16:19:50.938Z,3.40
2018-05-09T16:22:18.657Z,4.43
2018-05-09T16:24:46.241Z,3.53
2018-05-09T16:27:13.873Z,3.43
2018-05-09T16:29:41.450Z,4.10
2018-05-09T16:32:09.898Z,3.90
2018-05-09T16:34:37.490Z,5.10
2018-05-09T16:37:05.891Z,4.30
2018-05-09T16:39:33.479Z,4.00
2018-05-09T16:42:01.119Z,4.10
2018-05-09T16:44:28.701Z,3.70
2018-05-09T16:46:56.303Z,3.77
2018-05-09T16:49:23.972Z,3.90
2018-05-09T16:51:52.492Z,3.70
2018-05-09T16:54:20.112Z,5.10
2018-05-09T16:56:48.470Z,4.37
2018-05-09T16:59:16.126Z,3.57
2018-05-09T17:01:43.809Z,4.30
2018-05-09T17:04:11.435Z,6.80
2018-05-09T17:06:39.235Z,4.10
2018-05-09T17:09:07.568Z,5.63
2018-05-09T17:11:35.185Z,4.43
2018-05-09T17:14:03.531Z,4.10
2018-05-09T17:16:31.112Z,4.27
2018-05-09T17:18:58.672Z,6.20
2018-05-09T17:21:40.208Z,5.53
2018-05-09T17:24:07.804Z,4.07
2018-05-09T17:26:35.411Z,4.47
2018-05-09T17:29:02.989Z,4.40
2018-05-09T17:31:30.600Z,5.10
2018-05-09T17:33:58.192Z,4.93
2018-05-09T17:36:25.808Z,5.60
2018-05-09T17:38:53.433Z,4.30
2018-05-09T17:41:21.033Z,4.47
2018-05-09T17:43:48.657Z,5.10
2018-05-09T17:46:16.251Z,4.60
2018-05-09T17:48:43.859Z,5.30
2018-05-09T17:51:11.452Z,5.50
2018-05-09T17:53:39.045Z,4.83
2018-05-09T17:56:06.632Z,5.43
2018-05-09T17:58:34.293Z,4.73
2018-05-09T18:01:01.913Z,5.10
2018-05-09T18:03:29.542Z,4.50
2018-05-09T18:05:57.137Z,7.40
2018-05-09T18:08:24.741Z,5.07
2018-05-09T18:10:52.379Z,6.93
2018-05-09T18:13:20.013Z,5.80
2018-05-09T18:15:47.601Z,4.60
2018-05-09T18:18:15.331Z,4.70
2018-05-09T18:20:42.933Z,4.50
2018-05-09T18:23:10.590Z,5.23
2018-05-09T18:25:38.261Z,5.00
2018-05-09T18:28:05.838Z,6.03
2018-05-09T18:30:34.272Z,6.50
2018-05-09T18:33:01.941Z,4.97
2018-05-09T18:35:30.415Z,5.87
2018-05-09T18:37:58.033Z,5.03
2018-05-09T18:40:25.605Z,5.33
2018-05-09T18:42:53.320Z,5.80
2018-05-09T18:45:20.934Z,7.50
2018-05-09T18:47:48.670Z,5.70
2018-05-09T18:50:16.272Z,5.93
2018-05-09T18:52:43.911Z,5.50
2018-05-09T18:55:11.529Z,5.77
2018-05-09T18:57:39.078Z,5.60
2018-05-09T19:00:06.653Z,5.20
2018-05-09T19:02:34.227Z,5.20
2018-05-09T19:05:01.844Z,5.37
2018-05-09T19:07:29.464Z,7.30
2018-05-09T19:09:57.053Z,6.30
2018-05-09T19:12:24.603Z,6.80
2018-05-09T19:14:52.235Z,6.53
2018-05-09T19:17:19.855Z,6.20
2018-05-09T19:19:47.487Z,7.37
2018-05-09T19:22:15.101Z,4.93
2018-05-09T19:24:42.652Z,5.80
2018-05-09T19:27:10.233Z,5.00
2018-05-09T19:29:38.607Z,5.43
2018-05-09T19:32:06.281Z,5.27
2018-05-09T19:34:33.914Z,5.00
2018-05-09T19:37:01.549Z,5.70
2018-05-09T19:39:29.164Z,8.30
2018-05-09T19:41:56.796Z,6.57
2018-05-09T19:44:24.450Z,7.07
2018-05-09T19:46:52.044Z,7.97
2018-05-09T19:49:20.362Z,7.93
2018-05-09T19:51:48.069Z,7.20
2018-05-09T19:54:15.655Z,7.60
2018-05-09T19:56:44.010Z,10.50
2018-05-09T19:59:11.602Z,8.70
2018-05-09T20:01:39.200Z,8.10
2018-05-09T20:04:06.751Z,6.47
2018-05-09T20:06:35.387Z,6.73
2018-05-09T20:09:03.756Z,7.87
2018-05-09T20:11:31.301Z,7.87
2018-05-09T20:13:58.948Z,9.30
2018-05-09T20:16:27.280Z,7.30
2018-05-09T20:18:54.876Z,5.90
2018-05-09T20:21:23.417Z,7.60
2018-05-09T20:23:51.938Z,7.70
2018-05-09T20:26:19.563Z,6.43
2018-05-09T20:28:52.845Z,6.57
2018-05-09T20:31:38.193Z,6.10
2018-05-09T20:34:05.733Z,6.80
2018-05-09T20:36:33.363Z,5.90
2018-05-09T20:39:00.978Z,5.40
2018-05-09T20:41:29.339Z,6.17
2018-05-09T20:43:56.964Z,6.40
2018-05-09T20:46:24.564Z,6.20
2018-05-09T20:48:52.164Z,5.63
2018-05-09T21:04:55.161Z,5.63
2018-05-09T21:07:23.532Z,5.00
2018-05-09T21:09:51.866Z,4.70
2018-05-09T21:12:19.458Z,5.80
2018-05-09T21:14:47.050Z,6.40
2018-05-09T21:17:14.638Z,5.87
2018-05-09T21:19:42.210Z,5.10
2018-05-09T21:22:09.785Z,4.80
2018-05-09T21:24:37.364Z,5.50
2018-05-09T21:27:05.735Z,5.20
2018-05-09T21:29:34.106Z,4.77
2018-05-09T21:32:01.696Z,5.40
2018-05-09T21:34:30.317Z,5.77
2018-05-09T21:36:58.037Z,5.10
2018-05-09T21:39:26.426Z,5.47
2018-05-09T21:41:54.047Z,5.40
2018-05-09T21:44:21.688Z,5.33
2018-05-09T21:46:49.244Z,5.87
2018-05-09T21:49:16.851Z,5.23
2018-05-09T21:51:45.216Z,5.00
2018-05-09T21:54:12.794Z,5.67
2018-05-09T21:56:41.132Z,6.30
2018-05-09T21:59:08.747Z,6.00
2018-05-09T22:01:36.344Z,5.33
2018-05-09T22:04:04.009Z,4.70
2018-05-09T22:06:31.581Z,5.87
2018-05-09T22:08:59.153Z,5.90
2018-05-09T22:11:26.759Z,6.37
2018-05-09T22:13:54.338Z,6.13
2018-05-09T22:16:21.977Z,5.53
2018-05-09T22:18:49.639Z,5.37
2018-05-09T22:21:17.267Z,5.37
2018-05-09T22:23:44.834Z,5.33
2018-05-09T22:26:12.413Z,5.33
2018-05-09T22:28:40.018Z,5.20
2018-05-09T22:31:07.656Z,4.90
2018-05-09T22:33:35.284Z,5.90
2018-05-09T22:36:03.728Z,5.27
2018-05-09T22:38:31.302Z,5.40
2018-05-09T22:40:59.009Z,5.00
2018-05-09T22:43:26.652Z,5.40
2018-05-09T22:45:55.159Z,5.63
2018-05-09T22:48:22.743Z,5.33
2018-05-09T22:50:50.285Z,5.93
2018-05-09T22:53:17.898Z,5.10
2018-05-09T22:55:45.501Z,6.87
2018-05-09T22:58:13.152Z,5.67
2018-05-09T23:00:40.703Z,5.70
2018-05-09T23:03:08.314Z,5.67
2018-05-09T23:05:35.904Z,6.17
2018-05-09T23:08:03.490Z,5.67
2018-05-09T23:10:31.828Z,5.67
2018-05-09T23:12:59.412Z,5.80
2018-05-09T23:15:27.754Z,5.60
2018-05-09T23:17:55.378Z,5.27
2018-05-09T23:20:22.989Z,6.23
2018-05-09T23:22:50.562Z,6.00
2018-05-09T23:25:18.124Z,5.83
2018-05-09T23:27:45.715Z,5.13
2018-05-09T23:30:13.313Z,6.63
2018-05-09T23:32:40.851Z,5.33
2018-05-09T23:35:08.440Z,5.30
2018-05-09T23:37:36.009Z,6.30
2018-05-09T23:40:04.430Z,6.60
2018-05-09T23:42:32.009Z,6.93
2018-05-09T23:44:59.634Z,7.97
2018-05-09T23:47:27.987Z,8.00
2018-05-09T23:49:55.560Z,7.70
2018-05-09T23:52:23.156Z,9.23
2018-05-09T23:54:50.703Z,7.93
2018-05-09T23:57:19.061Z,7.17
2018-05-09T23:59:47.431Z,6.83
